Time;durP1;ratioP1;P1;durP2;ratioP2;P2;SDS_P1;SDS_P2;PMS_P1;PMS_P2;Temp;Humidity;BMP_temperature;BMP_pressure;BME280_temperature;BME280_humidity;BME280_pressure;Samples;Min_cycle;Max_cycle;Signal;HPM_P1;HPM_P2
2021/09/13 00:01:20;;;;;;;23.20;15.88;;;18.10;61.40;;;;;;5033158;28;20026;-64
2021/09/13 00:03:46;;;;;;;22.42;16.38;;;18.10;61.30;;;;;;5033528;28;20033;-64
2021/09/13 00:06:11;;;;;;;20.40;16.70;;;18.10;61.40;;;;;;5033551;28;20431;-64
2021/09/13 00:08:37;;;;;;;22.55;17.42;;;18.10;61.60;;;;;;5033947;28;20029;-64
2021/09/13 00:11:03;;;;;;;21.88;18.05;;;18.00;61.90;;;;;;5034062;28;20029;-64
2021/09/13 00:13:29;;;;;;;21.42;17.98;;;17.90;62.40;;;;;;5033459;28;20038;-65
2021/09/13 00:15:54;;;;;;;20.75;17.15;;;17.80;62.70;;;;;;5032133;28;20075;-64
2021/09/13 00:18:20;;;;;;;25.25;18.85;;;17.80;62.80;;;;;;5033043;28;20457;-64
2021/09/13 00:20:46;;;;;;;25.20;19.52;;;17.80;63.10;;;;;;5032117;28;20029;-63
2021/09/13 00:23:11;;;;;;;23.50;19.40;;;17.80;63.50;;;;;;5033604;28;20048;-64
2021/09/13 00:25:37;;;;;;;24.60;19.67;;;17.70;63.70;;;;;;5033594;28;20804;-65
2021/09/13 00:28:03;;;;;;;24.65;20.42;;;17.70;64.00;;;;;;5033218;28;20029;-63
2021/09/13 00:30:29;;;;;;;24.10;21.38;;;17.70;64.30;;;;;;5033209;28;20036;-64
2021/09/13 00:32:54;;;;;;;25.58;20.95;;;17.60;64.50;;;;;;5033360;28;20029;-64
2021/09/13 00:35:20;;;;;;;25.80;20.15;;;17.60;64.60;;;;;;5033409;28;20025;-63
2021/09/13 00:37:46;;;;;;;21.75;17.73;;;17.50;64.40;;;;;;5033144;28;20091;-64
2021/09/13 00:40:12;;;;;;;20.70;17.48;;;17.50;64.10;;;;;;5032928;28;20018;-64
2021/09/13 00:42:38;;;;;;;21.05;16.52;;;17.50;64.00;;;;;;5033201;28;20036;-64
2021/09/13 00:45:04;;;;;;;18.33;15.05;;;17.60;63.90;;;;;;5033108;28;20025;-65
2021/09/13 00:47:29;;;;;;;18.38;14.02;;;17.60;63.50;;;;;;5033037;28;20048;-64
2021/09/13 00:49:55;;;;;;;16.48;12.55;;;17.60;63.20;;;;;;5033010;28;20025;-65
2021/09/13 00:52:22;;;;;;;17.02;13.82;;;17.50;62.90;;;;;;5032481;28;20052;-64
2021/09/13 00:54:48;;;;;;;16.88;13.55;;;17.50;62.90;;;;;;5033077;28;20384;-64
2021/09/13 00:57:14;;;;;;;16.95;12.95;;;17.50;63.00;;;;;;5032736;28;20025;-64
2021/09/13 00:59:40;;;;;;;15.75;12.50;;;17.40;62.80;;;;;;5032734;28;20017;-64
2021/09/13 01:02:06;;;;;;;16.80;12.32;;;17.40;62.80;;;;;;5032879;28;20029;-64
2021/09/13 01:04:31;;;;;;;16.38;12.80;;;17.40;62.80;;;;;;5032389;28;20056;-63
2021/09/13 01:06:57;;;;;;;16.88;13.00;;;17.30;63.00;;;;;;5032930;28;20539;-64
2021/09/13 01:09:23;;;;;;;16.75;13.02;;;17.40;63.10;;;;;;5032863;28;20132;-63
2021/09/13 01:11:49;;;;;;;17.67;13.43;;;17.40;63.10;;;;;;5032519;28;20079;-64
2021/09/13 01:14:16;;;;;;;16.13;13.13;;;17.40;63.00;;;;;;5031469;28;20044;-64
2021/09/13 01:16:41;;;;;;;15.70;12.05;;;17.40;62.90;;;;;;5032250;28;20432;-63
2021/09/13 01:19:07;;;;;;;15.98;12.85;;;17.40;62.70;;;;;;5032441;28;20060;-64
2021/09/13 01:21:35;;;;;;;19.83;13.32;;;17.40;62.90;;;;;;5032479;28;20025;-64
2021/09/13 01:24:01;;;;;;;15.98;12.73;;;17.40;62.90;;;;;;5032109;28;20370;-65
2021/09/13 01:26:27;;;;;;;17.15;13.18;;;17.40;63.00;;;;;;5032249;28;20033;-64
2021/09/13 01:28:52;;;;;;;18.02;13.45;;;17.40;63.10;;;;;;5032495;28;20030;-64
2021/09/13 01:31:18;;;;;;;19.27;14.90;;;17.40;63.20;;;;;;5032469;28;20053;-63
2021/09/13 01:33:44;;;;;;;18.30;14.48;;;17.40;63.40;;;;;;5032239;28;20048;-64
2021/09/13 01:36:09;;;;;;;18.25;14.70;;;17.40;63.60;;;;;;5032048;28;20038;-64
2021/09/13 01:38:35;;;;;;;15.90;13.75;;;17.40;63.50;;;;;;5032080;28;20029;-65
2021/09/13 01:41:01;;;;;;;15.98;12.32;;;17.40;63.40;;;;;;5031939;28;20484;-64
2021/09/13 01:43:26;;;;;;;16.77;13.52;;;17.40;63.20;;;;;;5030469;28;20013;-64
2021/09/13 01:45:52;;;;;;;19.17;15.57;;;17.30;63.40;;;;;;5031696;28;20033;-64
2021/09/13 01:48:18;;;;;;;17.90;14.65;;;17.30;63.80;;;;;;5031930;28;20027;-64
2021/09/13 01:50:44;;;;;;;17.30;14.30;;;17.30;63.70;;;;;;5030528;28;20398;-64
2021/09/13 01:53:09;;;;;;;17.35;13.95;;;17.30;63.70;;;;;;5030803;28;20040;-64
2021/09/13 01:55:35;;;;;;;19.15;15.15;;;17.30;63.70;;;;;;5031949;28;20049;-64
2021/09/13 01:58:01;;;;;;;19.88;16.17;;;17.30;63.90;;;;;;5032026;28;20026;-64
2021/09/13 02:00:26;;;;;;;20.17;16.35;;;17.30;64.30;;;;;;5030060;28;20075;-64
2021/09/13 02:02:52;;;;;;;20.77;15.48;;;17.30;64.30;;;;;;5031520;28;20041;-65
2021/09/13 02:05:18;;;;;;;18.83;15.95;;;17.20;64.10;;;;;;5031909;28;20025;-65
2021/09/13 02:07:43;;;;;;;21.52;17.27;;;17.20;64.30;;;;;;5031798;28;20427;-64
2021/09/13 02:10:09;;;;;;;23.27;18.88;;;17.10;64.90;;;;;;5031883;28;20427;-64
2021/09/13 02:12:35;;;;;;;24.75;19.38;;;17.10;65.50;;;;;;5031449;28;20108;-64
2021/09/13 02:15:01;;;;;;;24.10;19.75;;;17.00;65.70;;;;;;5031662;28;20475;-63
2021/09/13 02:17:26;;;;;;;24.35;19.83;;;17.00;66.00;;;;;;5035133;28;20200;-63
2021/09/13 02:19:52;;;;;;;25.52;19.90;;;16.90;66.40;;;;;;5032408;28;20044;-64
2021/09/13 02:22:18;;;;;;;22.10;18.15;;;16.80;66.50;;;;;;5031269;28;20033;-63
2021/09/13 02:24:43;;;;;;;22.95;18.83;;;16.80;66.50;;;;;;5032801;28;20116;-64
2021/09/13 02:27:09;;;;;;;22.58;19.13;;;16.70;66.50;;;;;;5035838;28;20041;-64
2021/09/13 02:29:36;;;;;;;23.85;20.08;;;16.60;66.70;;;;;;5035623;28;20026;-64
2021/09/13 02:32:02;;;;;;;23.73;19.70;;;16.50;67.00;;;;;;5035327;28;20036;-64
2021/09/13 02:34:28;;;;;;;25.50;19.55;;;16.40;67.00;;;;;;5035696;28;20034;-64
2021/09/13 02:36:54;;;;;;;24.05;19.70;;;16.30;67.50;;;;;;5035795;28;20026;-63
2021/09/13 02:39:19;;;;;;;23.50;19.38;;;16.30;67.90;;;;;;5035591;28;20547;-64
2021/09/13 02:41:45;;;;;;;25.17;20.83;;;16.20;68.00;;;;;;5035363;28;20017;-64
2021/09/13 02:44:11;;;;;;;24.15;19.98;;;16.20;68.20;;;;;;5035216;28;20643;-64
2021/09/13 02:46:36;;;;;;;24.77;20.08;;;16.20;68.40;;;;;;5035422;28;20380;-64
2021/09/13 02:49:02;;;;;;;24.02;20.67;;;16.20;68.40;;;;;;5035404;28;20057;-64
2021/09/13 02:51:28;;;;;;;27.70;23.00;;;16.20;68.40;;;;;;5034656;28;20041;-63
2021/09/13 02:53:53;;;;;;;26.95;22.30;;;16.20;68.40;;;;;;5034927;28;20032;-64
2021/09/13 02:56:19;;;;;;;26.10;22.10;;;16.20;68.40;;;;;;5034802;28;20427;-64
2021/09/13 02:58:45;;;;;;;24.48;20.25;;;16.10;68.50;;;;;;5035216;28;20029;-64
2021/09/13 03:01:10;;;;;;;26.05;20.33;;;16.10;68.60;;;;;;5035115;28;20026;-64
2021/09/13 03:03:36;;;;;;;24.40;20.42;;;16.00;68.70;;;;;;5034954;28;20464;-64
2021/09/13 03:06:02;;;;;;;25.58;20.63;;;15.90;68.80;;;;;;5034986;28;20434;-64
2021/09/13 03:08:28;;;;;;;24.80;21.00;;;15.90;69.30;;;;;;5034705;28;20021;-63
2021/09/13 03:10:53;;;;;;;26.48;21.50;;;15.80;69.50;;;;;;5034886;28;20029;-64
2021/09/13 03:13:19;;;;;;;28.48;23.30;;;15.80;69.30;;;;;;5034769;28;20029;-64
2021/09/13 03:15:45;;;;;;;27.20;22.48;;;15.80;69.50;;;;;;5035004;28;20027;-63
2021/09/13 03:18:11;;;;;;;25.98;21.98;;;15.80;69.30;;;;;;5034301;28;20720;-64
2021/09/13 03:20:37;;;;;;;24.15;19.42;;;15.80;69.50;;;;;;5034675;28;20059;-64
2021/09/13 03:23:03;;;;;;;23.27;18.52;;;15.80;69.10;;;;;;5034736;28;20372;-64
2021/09/13 03:25:29;;;;;;;22.98;18.92;;;15.80;69.10;;;;;;5034599;28;20031;-65
2021/09/13 03:27:54;;;;;;;23.40;19.35;;;15.80;69.10;;;;;;5034270;28;20086;-65
2021/09/13 03:30:20;;;;;;;25.33;18.77;;;15.90;69.30;;;;;;5034258;28;20063;-64
2021/09/13 03:32:46;;;;;;;23.63;18.25;;;15.90;69.30;;;;;;5034472;28;20472;-64
2021/09/13 03:35:12;;;;;;;22.85;19.13;;;15.90;69.30;;;;;;5033057;28;20052;-64
2021/09/13 03:37:38;;;;;;;24.95;20.05;;;15.90;69.10;;;;;;5033218;28;20022;-65
2021/09/13 03:40:05;;;;;;;25.58;20.70;;;16.00;69.00;;;;;;5034268;28;20029;-64
2021/09/13 03:42:30;;;;;;;25.00;21.45;;;16.00;69.20;;;;;;5034302;28;20033;-63
2021/09/13 03:44:56;;;;;;;27.80;21.52;;;16.10;69.20;;;;;;5034280;28;20021;-64
2021/09/13 03:47:22;;;;;;;29.35;23.10;;;16.10;69.00;;;;;;5033826;28;20100;-65
2021/09/13 03:49:47;;;;;;;25.60;21.17;;;16.20;69.10;;;;;;5034215;28;20037;-64
2021/09/13 03:52:13;;;;;;;24.98;20.25;;;16.20;68.90;;;;;;5033811;28;20046;-64
2021/09/13 03:54:39;;;;;;;24.70;20.13;;;16.30;68.80;;;;;;5033468;28;20057;-64
2021/09/13 03:57:05;;;;;;;25.10;21.05;;;16.40;68.50;;;;;;5033982;28;20021;-64
2021/09/13 03:59:32;;;;;;;22.73;18.88;;;16.30;68.60;;;;;;5034084;28;20037;-64
2021/09/13 04:01:58;;;;;;;26.15;21.48;;;16.30;68.60;;;;;;5034037;28;20033;-65
2021/09/13 04:04:27;;;;;;;26.27;21.58;;;16.40;68.90;;;;;;5033724;28;20026;-65
2021/09/13 04:06:58;;;;;;;28.25;22.55;;;16.40;68.90;;;;;;5033745;28;20018;-66
2021/09/13 04:11:57;;;;;;;28.20;20.92;;;16.40;68.70;;;;;;5033785;28;20354;-67
2021/09/13 04:14:24;;;;;;;27.17;21.52;;;16.40;68.50;;;;;;5033808;28;20018;-66
2021/09/13 04:16:51;;;;;;;28.35;21.95;;;16.50;68.50;;;;;;5033258;28;20085;-67
2021/09/13 04:19:17;;;;;;;25.55;19.80;;;16.50;68.40;;;;;;5033641;28;20054;-65
2021/09/13 04:21:43;;;;;;;27.55;20.42;;;16.60;68.30;;;;;;5033684;28;20052;-66
2021/09/13 04:24:08;;;;;;;23.52;18.73;;;16.60;68.20;;;;;;5033566;28;20034;-65
2021/09/13 04:26:34;;;;;;;24.63;18.13;;;16.70;68.10;;;;;;5032959;28;20091;-65
2021/09/13 04:29:00;;;;;;;23.45;18.02;;;16.80;68.00;;;;;;5031974;28;20025;-68
2021/09/13 04:31:27;;;;;;;21.38;17.40;;;16.90;68.00;;;;;;5030884;28;20546;-66
2021/09/13 04:33:53;;;;;;;22.60;16.98;;;17.00;67.80;;;;;;5033239;28;20068;-65
2021/09/13 04:36:19;;;;;;;22.80;17.60;;;17.10;68.30;;;;;;5033415;28;20408;-67
2021/09/13 04:38:45;;;;;;;21.20;17.15;;;17.10;67.70;;;;;;5032776;28;20021;-66
2021/09/13 04:41:11;;;;;;;19.98;16.20;;;17.20;67.50;;;;;;5032926;28;20013;-65
2021/09/13 04:43:37;;;;;;;21.73;17.48;;;17.30;67.30;;;;;;5033328;28;20029;-67
2021/09/13 04:46:03;;;;;;;23.67;18.33;;;17.40;67.20;;;;;;5033110;28;20396;-66
2021/09/13 04:48:29;;;;;;;23.15;19.45;;;17.50;67.80;;;;;;5033180;28;20787;-66
2021/09/13 04:50:54;;;;;;;24.15;18.98;;;17.60;67.10;;;;;;5032763;28;20045;-65
2021/09/13 04:53:21;;;;;;;22.00;18.15;;;17.70;67.00;;;;;;5032503;28;20057;-69
2021/09/13 04:55:47;;;;;;;24.58;20.30;;;17.70;66.90;;;;;;5032940;28;20025;-65
2021/09/13 04:58:13;;;;;;;25.38;20.27;;;17.80;67.00;;;;;;5032911;28;20052;-66
2021/09/13 05:00:39;;;;;;;22.88;18.73;;;17.80;67.10;;;;;;5032094;28;20480;-68
2021/09/13 05:03:05;;;;;;;21.08;17.45;;;17.80;67.00;;;;;;5032312;28;20017;-66
2021/09/13 05:05:31;;;;;;;20.75;16.90;;;17.80;66.90;;;;;;5032657;28;20036;-67
2021/09/13 05:07:56;;;;;;;21.90;17.40;;;17.90;66.90;;;;;;5032781;28;20029;-67
2021/09/13 05:10:22;;;;;;;20.35;17.10;;;17.90;66.70;;;;;;5032330;28;20072;-66
2021/09/13 05:12:48;;;;;;;19.23;14.73;;;18.00;66.50;;;;;;5032242;28;20079;-67
2021/09/13 05:15:14;;;;;;;18.73;15.25;;;18.10;66.30;;;;;;5031146;28;20017;-65
2021/09/13 05:17:40;;;;;;;17.13;14.48;;;18.20;66.30;;;;;;5031910;28;20118;-66
2021/09/13 05:20:06;;;;;;;21.23;15.25;;;18.30;66.10;;;;;;5032111;28;20366;-65
2021/09/13 05:22:32;;;;;;;19.92;14.63;;;18.40;66.00;;;;;;5032214;28;20064;-67
2021/09/13 05:24:57;;;;;;;17.77;13.98;;;18.50;65.80;;;;;;5032155;28;20119;-66
2021/09/13 05:27:23;;;;;;;19.13;14.45;;;18.60;65.70;;;;;;5031709;28;20029;-66
2021/09/13 05:29:49;;;;;;;19.67;15.90;;;18.70;65.60;;;;;;5032150;28;20506;-68
2021/09/13 05:32:14;;;;;;;20.70;16.45;;;18.80;65.60;;;;;;5032268;28;20430;-68
2021/09/13 05:34:40;;;;;;;22.00;17.60;;;18.90;65.60;;;;;;5032206;28;20136;-67
2021/09/13 05:37:06;;;;;;;20.02;16.30;;;19.00;65.70;;;;;;5031613;28;20021;-66
2021/09/13 05:39:32;;;;;;;19.98;16.38;;;19.10;65.60;;;;;;5052068;28;20025;-67
2021/09/13 05:41:58;;;;;;;19.80;16.10;;;19.10;65.40;;;;;;5052014;28;20027;-66
2021/09/13 05:44:24;;;;;;;18.90;15.10;;;19.10;65.30;;;;;;5050817;28;20029;-66
2021/09/13 05:46:51;;;;;;;17.63;14.45;;;19.20;65.20;;;;;;5051795;28;20024;-66
2021/09/13 05:49:17;;;;;;;17.73;13.45;;;19.30;65.00;;;;;;5032792;28;20097;-66
2021/09/13 05:51:45;;;;;;;18.05;14.93;;;19.30;64.70;;;;;;5031590;28;20041;-65
2021/09/13 05:54:14;;;;;;;15.70;12.95;;;19.30;64.40;;;;;;5029803;28;20029;-66
2021/09/13 05:56:49;;;;;;;15.93;11.82;;;19.40;64.20;;;;;;5031722;28;20049;-67
2021/09/13 05:59:15;;;;;;;12.88;10.48;;;19.40;64.00;;;;;;5031364;28;20457;-66
2021/09/13 06:01:41;;;;;;;13.98;10.80;;;19.50;63.80;;;;;;5031123;28;20029;-66
2021/09/13 06:04:06;;;;;;;13.02;10.40;;;19.60;63.60;;;;;;5031801;28;20036;-66
2021/09/13 06:06:32;;;;;;;15.73;12.23;;;19.70;63.40;;;;;;5032020;28;20720;-67
2021/09/13 06:08:57;;;;;;;13.57;10.73;;;19.80;63.30;;;;;;5031829;28;20029;-66
2021/09/13 06:11:26;;;;;;;15.55;13.02;;;19.90;63.10;;;;;;5031100;28;20030;-66
2021/09/13 06:13:53;;;;;;;16.40;13.00;;;19.90;62.90;;;;;;5012072;28;20053;-67
2021/09/13 06:16:18;;;;;;;16.75;13.57;;;20.00;62.80;;;;;;5011904;28;20022;-67
2021/09/13 06:18:44;;;;;;;18.25;14.50;;;20.00;62.80;;;;;;5011719;28;20377;-67
2021/09/13 06:21:10;;;;;;;16.73;13.32;;;20.00;62.70;;;;;;5011843;28;20080;-67
2021/09/13 06:23:35;;;;;;;19.05;15.98;;;20.00;62.70;;;;;;5030691;28;20030;-67
2021/09/13 06:26:01;;;;;;;16.98;14.45;;;20.00;62.80;;;;;;5030247;28;20030;-67
2021/09/13 06:28:26;;;;;;;17.38;14.15;;;20.00;62.80;;;;;;5031619;28;20022;-67
2021/09/13 06:30:52;;;;;;;16.88;14.90;;;20.00;62.70;;;;;;5031158;28;20034;-66
2021/09/13 06:33:18;;;;;;;16.63;14.23;;;20.00;62.70;;;;;;5031170;28;20115;-67
2021/09/13 06:35:43;;;;;;;15.52;13.30;;;20.10;62.70;;;;;;5031570;28;20071;-68
2021/09/13 06:38:09;;;;;;;18.63;14.95;;;20.20;62.60;;;;;;5030495;28;20051;-67
2021/09/13 06:40:35;;;;;;;16.35;14.23;;;20.20;62.30;;;;;;5030697;28;20098;-67
2021/09/13 06:43:01;;;;;;;16.75;13.45;;;20.30;62.00;;;;;;5029754;28;20036;-68
2021/09/13 06:45:27;;;;;;;15.60;13.23;;;20.40;61.70;;;;;;5035299;28;20399;-67
2021/09/13 06:47:53;;;;;;;15.25;12.85;;;20.60;61.50;;;;;;5046241;28;20033;-70
2021/09/13 06:50:26;;;;;;;20.00;14.13;;;20.70;61.20;;;;;;5027591;28;20026;-68
2021/09/13 06:52:56;;;;;;;16.95;13.68;;;20.80;60.80;;;;;;5044971;28;20039;-67
2021/09/13 06:55:22;;;;;;;18.90;15.80;;;20.90;60.40;;;;;;5033542;28;20121;-67
2021/09/13 06:57:49;;;;;;;17.42;14.45;;;21.10;60.00;;;;;;5031251;28;20092;-66
2021/09/13 07:00:17;;;;;;;17.50;14.70;;;21.20;59.40;;;;;;5024485;28;20022;-67
2021/09/13 07:02:45;;;;;;;16.63;14.05;;;21.20;58.80;;;;;;5029627;28;20445;-68
2021/09/13 07:05:11;;;;;;;16.23;13.30;;;21.30;58.60;;;;;;5031164;28;20028;-68
2021/09/13 07:07:37;;;;;;;15.95;13.48;;;21.40;58.60;;;;;;5033851;28;20084;-68
2021/09/13 07:10:06;;;;;;;16.65;13.63;;;21.50;58.10;;;;;;5030855;28;20411;-67
2021/09/13 07:12:32;;;;;;;16.50;13.48;;;21.60;57.40;;;;;;5033227;28;20105;-66
2021/09/13 07:14:58;;;;;;;15.38;13.70;;;21.80;57.20;;;;;;5033862;28;20034;-68
2021/09/13 07:17:23;;;;;;;16.02;13.00;;;22.00;57.10;;;;;;5034172;28;20075;-68
2021/09/13 07:19:51;;;;;;;14.20;11.45;;;22.10;57.00;;;;;;5034399;28;20045;-69
2021/09/13 07:22:17;;;;;;;12.38;10.30;;;22.40;57.30;;;;;;5034784;28;20033;-69
2021/09/13 07:24:43;;;;;;;13.10;10.85;;;22.70;57.30;;;;;;5034410;28;20058;-68
2021/09/13 07:27:10;;;;;;;14.43;12.50;;;23.00;56.90;;;;;;5033331;28;20029;-67
2021/09/13 07:29:37;;;;;;;17.50;13.23;;;23.40;56.10;;;;;;5043682;28;20445;-67
2021/09/13 07:32:03;;;;;;;14.88;12.13;;;23.70;55.10;;;;;;5054050;28;20025;-68
2021/09/13 07:34:30;;;;;;;12.90;10.90;;;23.90;54.50;;;;;;5025514;28;20022;-68
2021/09/13 07:36:56;;;;;;;13.73;11.75;;;24.10;54.80;;;;;;5040378;28;20017;-67
2021/09/13 07:39:26;;;;;;;13.88;11.43;;;24.40;54.30;;;;;;5023323;28;20472;-69
2021/09/13 07:41:52;;;;;;;12.40;10.18;;;24.60;54.10;;;;;;5041569;28;20090;-68
2021/09/13 07:44:18;;;;;;;16.25;12.00;;;24.90;54.30;;;;;;5037548;28;20492;-67
2021/09/13 07:46:44;;;;;;;12.23;10.48;;;25.30;53.70;;;;;;5035628;28;20037;-67
2021/09/13 07:49:10;;;;;;;13.70;12.23;;;25.60;53.20;;;;;;5032897;28;20029;-68
2021/09/13 07:51:35;;;;;;;12.93;11.25;;;26.00;51.40;;;;;;5024086;28;20058;-67
2021/09/13 07:54:01;;;;;;;11.60;10.02;;;26.20;51.40;;;;;;5029518;28;20465;-66
2021/09/13 07:56:27;;;;;;;14.13;10.45;;;26.50;51.70;;;;;;5029607;28;20038;-67
2021/09/13 07:58:54;;;;;;;14.50;10.90;;;26.90;50.80;;;;;;5037879;28;20532;-67
2021/09/13 08:01:23;;;;;;;13.90;12.02;;;27.10;50.40;;;;;;5034466;28;20077;-67
2021/09/13 08:03:49;;;;;;;11.30;10.05;;;27.30;50.10;;;;;;5033573;28;20100;-67
2021/09/13 08:06:14;;;;;;;13.73;11.80;;;27.60;50.30;;;;;;5032675;28;20602;-68
2021/09/13 08:08:40;;;;;;;11.77;10.20;;;27.90;49.20;;;;;;5021083;28;20037;-68
2021/09/13 08:11:08;;;;;;;11.05;9.30;;;28.10;49.10;;;;;;5046253;28;20108;-69
2021/09/13 08:13:34;;;;;;;11.57;10.27;;;28.30;49.40;;;;;;5031299;28;20021;-67
2021/09/13 08:16:00;;;;;;;10.93;9.05;;;28.50;48.70;;;;;;5037863;28;20018;-67
2021/09/13 08:18:26;;;;;;;10.35;9.20;;;28.70;48.60;;;;;;5036590;28;20075;-68
2021/09/13 08:20:52;;;;;;;10.75;9.57;;;29.00;48.30;;;;;;5018744;28;20033;-68
2021/09/13 08:23:17;;;;;;;12.88;10.50;;;29.20;47.60;;;;;;5012916;28;20036;-67
2021/09/13 08:25:43;;;;;;;12.32;10.05;;;29.40;45.60;;;;;;5032367;28;20061;-68
2021/09/13 08:28:12;;;;;;;10.25;9.13;;;29.40;45.00;;;;;;5031811;28;20025;-67
2021/09/13 08:30:38;;;;;;;10.02;8.93;;;29.40;46.00;;;;;;5031614;28;20021;-68
2021/09/13 08:33:04;;;;;;;10.35;9.00;;;29.60;46.30;;;;;;5032845;28;20032;-67
2021/09/13 08:35:29;;;;;;;10.82;8.85;;;29.90;45.50;;;;;;5031385;28;20040;-68
2021/09/13 08:37:55;;;;;;;11.32;9.27;;;30.20;44.60;;;;;;5028312;28;20052;-67
2021/09/13 08:40:21;;;;;;;9.65;8.13;;;30.40;44.60;;;;;;5035899;28;20056;-69
2021/09/13 08:42:49;;;;;;;10.13;8.60;;;30.60;45.00;;;;;;5026349;28;20068;-67
2021/09/13 08:45:21;;;;;;;10.68;8.30;;;31.00;44.50;;;;;;5032629;28;20108;-67
2021/09/13 08:53:15;;;;;;;11.45;8.35;;;31.50;42.30;;;;;;5036341;28;20103;-66
2021/09/13 08:55:44;;;;;;;9.35;8.10;;;31.60;42.20;;;;;;5036346;28;20044;-67
2021/09/13 08:58:11;;;;;;;9.65;8.00;;;31.70;42.30;;;;;;5035783;28;20027;-67
2021/09/13 09:00:42;;;;;;;10.20;7.95;;;31.90;42.30;;;;;;5032705;28;20029;-68
2021/09/13 09:03:12;;;;;;;9.23;7.97;;;32.10;41.90;;;;;;5034711;28;20033;-67
2021/09/13 09:06:04;;;;;;;8.85;7.40;;;32.30;42.20;;;;;;5036272;28;20111;-67
2021/09/13 09:08:31;;;;;;;8.93;7.35;;;32.60;41.50;;;;;;5038398;28;20048;-67
2021/09/13 09:11:03;;;;;;;9.07;8.10;;;32.80;42.20;;;;;;5037372;28;20095;-67
2021/09/13 09:13:45;;;;;;;10.80;8.98;;;33.20;41.60;;;;;;5028228;28;20452;-67
2021/09/13 09:16:14;;;;;;;10.57;8.90;;;33.30;40.30;;;;;;5037211;28;20025;-66
2021/09/13 09:18:48;;;;;;;9.20;8.02;;;33.30;40.20;;;;;;5031976;28;20371;-67
2021/09/13 09:21:34;;;;;;;9.45;8.30;;;33.40;40.00;;;;;;5042419;28;20563;-67
2021/09/13 09:24:04;;;;;;;10.18;7.50;;;33.40;40.00;;;;;;5036892;28;20041;-67
2021/09/13 09:26:31;;;;;;;10.15;7.72;;;33.60;40.70;;;;;;5041511;28;20373;-69
2021/09/13 09:28:58;;;;;;;8.85;7.85;;;33.90;40.50;;;;;;5050052;28;20033;-66
2021/09/13 09:31:34;;;;;;;8.82;7.93;;;34.10;39.90;;;;;;5051586;28;20028;-67
2021/09/13 09:34:17;;;;;;;9.32;7.35;;;34.30;39.50;;;;;;5034074;28;20057;-66
2021/09/13 09:37:11;;;;;;;8.43;7.47;;;34.40;39.00;;;;;;5036007;28;20105;-68
2021/09/13 09:39:49;;;;;;;8.02;7.03;;;34.70;39.60;;;;;;5030681;28;20073;-65
2021/09/13 09:42:37;;;;;;;11.48;7.47;;;35.00;39.50;;;;;;5040297;28;20017;-67
2021/09/13 09:45:24;;;;;;;9.10;7.70;;;35.10;38.80;;;;;;5032607;28;20067;-69
2021/09/13 09:48:10;;;;;;;8.90;7.55;;;35.40;38.60;;;;;;5038621;28;20026;-68
2021/09/13 09:50:37;;;;;;;8.15;7.15;;;35.50;38.30;;;;;;5031560;28;20041;-69
2021/09/13 09:53:17;;;;;;;8.20;7.00;;;35.40;38.40;;;;;;5039883;28;20030;-67
2021/09/13 09:55:49;;;;;;;10.05;7.97;;;35.50;38.40;;;;;;5038659;28;20041;-69
2021/09/13 09:58:16;;;;;;;8.73;7.32;;;35.70;38.20;;;;;;5034185;28;20036;-66
2021/09/13 10:00:45;;;;;;;8.27;6.88;;;35.80;38.20;;;;;;5038214;28;20040;-68
2021/09/13 10:03:10;;;;;;;8.60;7.07;;;35.90;37.90;;;;;;5033110;28;20075;-67
2021/09/13 10:05:36;;;;;;;7.50;6.22;;;36.00;37.40;;;;;;5030623;28;20029;-67
2021/09/13 10:08:04;;;;;;;7.75;6.60;;;36.10;37.60;;;;;;5031697;28;20025;-67
2021/09/13 10:10:31;;;;;;;8.63;7.25;;;36.30;37.60;;;;;;5050317;28;20037;-66
2021/09/13 10:13:00;;;;;;;7.95;6.35;;;36.40;36.60;;;;;;5042225;28;20388;-67
2021/09/13 10:15:27;;;;;;;8.40;6.80;;;36.30;36.60;;;;;;5031425;28;20018;-70
2021/09/13 10:17:53;;;;;;;7.65;6.07;;;36.40;36.80;;;;;;5030135;28;20022;-68
2021/09/13 10:20:22;;;;;;;7.47;6.30;;;36.40;36.80;;;;;;5031554;28;20428;-67
2021/09/13 10:22:51;;;;;;;7.07;6.13;;;36.50;36.80;;;;;;5030181;28;20038;-69
2021/09/13 10:25:18;;;;;;;7.88;6.38;;;36.60;36.50;;;;;;5026620;28;20048;-67
2021/09/13 10:27:47;;;;;;;7.97;6.10;;;36.60;36.20;;;;;;5041604;28;20041;-69
2021/09/13 10:30:21;;;;;;;8.27;6.20;;;36.30;36.40;;;;;;5049797;28;20055;-68
2021/09/13 10:32:49;;;;;;;6.85;5.70;;;35.80;36.20;;;;;;5051079;28;20592;-67
2021/09/13 10:35:18;;;;;;;7.07;5.95;;;35.30;36.50;;;;;;5039288;28;20021;-68
2021/09/13 10:37:51;;;;;;;7.57;6.40;;;34.50;36.50;;;;;;5030815;28;20473;-67
2021/09/13 10:40:25;;;;;;;8.57;6.57;;;33.80;36.90;;;;;;5029596;28;20022;-68
2021/09/13 10:43:15;;;;;;;8.27;6.57;;;33.40;37.40;;;;;;5049544;28;20086;-69
2021/09/13 10:45:41;;;;;;;7.95;6.90;;;33.80;37.80;;;;;;5050725;28;20031;-67
2021/09/13 10:48:15;;;;;;;8.07;7.05;;;34.40;37.50;;;;;;5036587;28;20037;-66
2021/09/13 10:50:49;;;;;;;7.78;6.97;;;34.70;37.00;;;;;;5032949;28;20373;-67
2021/09/13 10:53:18;;;;;;;8.45;6.53;;;34.80;36.60;;;;;;5035095;28;20036;-67
2021/09/13 10:55:52;;;;;;;7.95;6.72;;;35.00;36.90;;;;;;5049174;28;20140;-68
2021/09/13 10:58:19;;;;;;;7.53;6.50;;;35.30;36.90;;;;;;5027140;28;20105;-66
2021/09/13 11:00:45;;;;;;;9.35;7.13;;;35.90;36.70;;;;;;5053050;28;20112;-68
2021/09/13 11:06:08;;;;;;;7.53;6.03;;;36.90;35.40;;;;;;5034707;28;20389;-63
2021/09/13 11:08:41;;;;;;;6.72;5.78;;;36.90;35.40;;;;;;5043068;28;20029;-67
2021/09/13 11:11:28;;;;;;;9.25;5.72;;;37.10;35.90;;;;;;5054583;28;20029;-65
2021/09/13 11:14:10;;;;;;;7.22;5.70;;;37.20;36.50;;;;;;5047720;28;20072;-65
2021/09/13 11:16:41;;;;;;;6.40;5.15;;;37.30;37.00;;;;;;5029857;28;20018;-64
2021/09/13 11:19:11;;;;;;;;;;;37.40;36.80;;;;;;5037288;28;20031;-63
2021/09/13 11:21:40;;;;;;;6.95;4.82;;;37.30;37.70;;;;;;5054465;28;19914;-62
2021/09/13 11:24:16;;;;;;;5.85;4.60;;;37.30;36.70;;;;;;5054785;28;20112;-67
2021/09/13 11:26:48;;;;;;;6.25;4.80;;;37.30;37.10;;;;;;5054215;28;20052;-63
2021/09/13 11:29:27;;;;;;;6.20;4.90;;;37.40;37.30;;;;;;5047669;28;20026;-63
2021/09/13 11:31:54;;;;;;;6.00;4.90;;;37.70;37.20;;;;;;5030275;28;20459;-63
2021/09/13 11:34:23;;;;;;;5.90;4.65;;;38.20;37.00;;;;;;5012699;28;20065;-63
2021/09/13 11:37:06;;;;;;;6.55;4.68;;;38.50;36.70;;;;;;5038140;28;20025;-63
2021/09/13 11:39:35;;;;;;;6.57;5.18;;;39.10;36.70;;;;;;5033120;28;20594;-64
2021/09/13 11:42:05;;;;;;;6.05;4.60;;;39.50;36.70;;;;;;5032716;28;20105;-61
2021/09/13 11:44:38;;;;;;;5.50;4.32;;;40.10;36.40;;;;;;5033842;28;20482;-61
2021/09/13 11:47:05;;;;;;;6.13;4.57;;;40.50;35.80;;;;;;5033865;28;20029;-61
2021/09/13 11:49:34;;;;;;;6.18;4.63;;;40.90;35.70;;;;;;5033255;28;20358;-61
2021/09/13 11:52:07;;;;;;;5.80;4.85;;;41.20;35.50;;;;;;5033217;28;20107;-62
2021/09/13 11:54:41;;;;;;;5.90;5.10;;;41.50;35.00;;;;;;5033653;28;20079;-61
2021/09/13 11:57:36;;;;;;;6.00;5.00;;;41.70;34.50;;;;;;5033108;28;20021;-61
2021/09/13 12:00:22;;;;;;;5.85;4.72;;;41.50;33.70;;;;;;5033911;28;20037;-61
2021/09/13 12:02:50;;;;;;;6.53;4.80;;;41.30;33.90;;;;;;5032699;28;20468;-61
2021/09/13 12:05:19;;;;;;;6.50;4.90;;;41.10;34.20;;;;;;5033473;28;20034;-61
2021/09/13 12:07:47;;;;;;;6.13;4.95;;;40.70;34.10;;;;;;5033617;28;20116;-61
2021/09/13 12:10:16;;;;;;;6.13;5.10;;;40.40;34.20;;;;;;5033457;28;20037;-61
2021/09/13 12:12:45;;;;;;;6.90;5.20;;;40.40;34.50;;;;;;5033254;28;20022;-61
2021/09/13 12:15:11;;;;;;;6.05;5.10;;;40.60;34.60;;;;;;5033367;28;20018;-61
2021/09/13 12:17:39;;;;;;;6.65;5.35;;;40.90;34.60;;;;;;5033032;28;20022;-61
2021/09/13 12:20:35;;;;;;;6.28;4.95;;;41.30;34.30;;;;;;5033389;28;20026;-61
2021/09/13 12:23:10;;;;;;;6.00;5.10;;;41.80;33.00;;;;;;5032866;28;20397;-61
2021/09/13 12:25:50;;;;;;;6.43;5.28;;;42.30;33.20;;;;;;5033302;28;20105;-62
2021/09/13 12:28:24;;;;;;;6.85;5.05;;;42.60;33.50;;;;;;5033091;28;20021;-61
2021/09/13 12:30:53;;;;;;;7.10;5.22;;;42.90;33.40;;;;;;5033129;28;20099;-61
2021/09/13 12:33:19;;;;;;;6.55;5.07;;;43.10;33.20;;;;;;5033220;28;20032;-61
2021/09/13 12:35:47;;;;;;;6.50;5.18;;;43.30;33.00;;;;;;5033257;28;20389;-61
2021/09/13 12:38:14;;;;;;;6.28;4.90;;;43.50;33.00;;;;;;5033069;28;20022;-62
2021/09/13 12:40:57;;;;;;;6.30;5.22;;;43.70;33.60;;;;;;5032910;28;20576;-61
2021/09/13 12:43:32;;;;;;;5.93;4.60;;;44.00;32.40;;;;;;5032613;28;20065;-62
2021/09/13 12:46:12;;;;;;;5.80;4.43;;;44.10;32.10;;;;;;5032715;28;20026;-61
2021/09/13 12:48:45;;;;;;;6.25;4.55;;;44.30;31.10;;;;;;5032774;28;20076;-60